sensor_id;sensor_type;location;lat;lon;timestamp;P1;durP1;ratioP1;P2;durP2;ratioP2
78443;SDS011;67739;52.986;8.894;2023-07-29T00:04:09;5.65;;;1.58;;
78443;SDS011;67739;52.986;8.894;2023-07-29T00:06:34;5.72;;;1.88;;
78443;SDS011;67739;52.986;8.894;2023-07-29T00:09:03;8.27;;;2.67;;
78443;SDS011;67739;52.986;8.894;2023-07-29T00:11:29;4.45;;;1.33;;
78443;SDS011;67739;52.986;8.894;2023-07-29T00:13:55;6.32;;;1.73;;
78443;SDS011;67739;52.986;8.894;2023-07-29T00:16:20;7.93;;;1.80;;
78443;SDS011;67739;52.986;8.894;2023-07-29T00:18:48;4.85;;;1.50;;
78443;SDS011;67739;52.986;8.894;2023-07-29T00:21:14;7.05;;;1.58;;
78443;SDS011;67739;52.986;8.894;2023-07-29T00:23:39;6.68;;;2.13;;
78443;SDS011;67739;52.986;8.894;2023-07-29T00:26:05;5.07;;;1.80;;
78443;SDS011;67739;52.986;8.894;2023-07-29T00:28:30;3.88;;;1.52;;
78443;SDS011;67739;52.986;8.894;2023-07-29T00:30:59;5.18;;;1.38;;
78443;SDS011;67739;52.986;8.894;2023-07-29T00:33:24;4.63;;;1.55;;
78443;SDS011;67739;52.986;8.894;2023-07-29T00:35:49;6.43;;;1.50;;
78443;SDS011;67739;52.986;8.894;2023-07-29T00:38:15;7.78;;;2.00;;
78443;SDS011;67739;52.986;8.894;2023-07-29T00:40:40;5.47;;;1.73;;
78443;SDS011;67739;52.986;8.894;2023-07-29T00:43:05;7.03;;;2.53;;
78443;SDS011;67739;52.986;8.894;2023-07-29T00:45:31;4.10;;;1.48;;
78443;SDS011;67739;52.986;8.894;2023-07-29T00:47:58;7.40;;;1.85;;
78443;SDS011;67739;52.986;8.894;2023-07-29T00:50:24;5.45;;;1.60;;
78443;SDS011;67739;52.986;8.894;2023-07-29T00:52:50;6.38;;;2.30;;
78443;SDS011;67739;52.986;8.894;2023-07-29T00:55:15;5.40;;;1.50;;
78443;SDS011;67739;52.986;8.894;2023-07-29T00:57:41;5.57;;;1.77;;
78443;SDS011;67739;52.986;8.894;2023-07-29T01:00:07;6.10;;;2.15;;
78443;SDS011;67739;52.986;8.894;2023-07-29T01:02:34;6.75;;;1.98;;
78443;SDS011;67739;52.986;8.894;2023-07-29T01:05:00;6.72;;;1.58;;
78443;SDS011;67739;52.986;8.894;2023-07-29T01:07:36;6.32;;;2.03;;
78443;SDS011;67739;52.986;8.894;2023-07-29T01:10:19;6.90;;;1.92;;
78443;SDS011;67739;52.986;8.894;2023-07-29T01:15:50;5.95;;;1.75;;
78443;SDS011;67739;52.986;8.894;2023-07-29T01:18:25;5.93;;;2.03;;
78443;SDS011;67739;52.986;8.894;2023-07-29T01:20:53;5.78;;;2.20;;
78443;SDS011;67739;52.986;8.894;2023-07-29T01:23:33;5.97;;;1.70;;
78443;SDS011;67739;52.986;8.894;2023-07-29T01:25:59;4.93;;;1.27;;
78443;SDS011;67739;52.986;8.894;2023-07-29T01:28:25;6.82;;;2.10;;
78443;SDS011;67739;52.986;8.894;2023-07-29T01:30:52;6.63;;;2.30;;
78443;SDS011;67739;52.986;8.894;2023-07-29T01:33:27;7.07;;;2.08;;
78443;SDS011;67739;52.986;8.894;2023-07-29T01:36:02;9.18;;;2.85;;
78443;SDS011;67739;52.986;8.894;2023-07-29T01:38:35;6.30;;;2.35;;
78443;SDS011;67739;52.986;8.894;2023-07-29T01:41:02;7.40;;;2.28;;
78443;SDS011;67739;52.986;8.894;2023-07-29T01:43:29;6.90;;;2.95;;
78443;SDS011;67739;52.986;8.894;2023-07-29T01:45:56;6.50;;;1.92;;
78443;SDS011;67739;52.986;8.894;2023-07-29T01:48:21;6.95;;;2.00;;
78443;SDS011;67739;52.986;8.894;2023-07-29T01:50:47;6.32;;;2.22;;
78443;SDS011;67739;52.986;8.894;2023-07-29T01:53:12;5.97;;;1.90;;
78443;SDS011;67739;52.986;8.894;2023-07-29T01:55:38;6.90;;;2.45;;
78443;SDS011;67739;52.986;8.894;2023-07-29T01:58:04;8.02;;;3.08;;
78443;SDS011;67739;52.986;8.894;2023-07-29T02:00:29;6.47;;;2.17;;
78443;SDS011;67739;52.986;8.894;2023-07-29T02:02:54;7.00;;;2.40;;
78443;SDS011;67739;52.986;8.894;2023-07-29T02:05:23;7.13;;;2.40;;
78443;SDS011;67739;52.986;8.894;2023-07-29T02:07:48;6.72;;;2.85;;
78443;SDS011;67739;52.986;8.894;2023-07-29T02:10:14;6.70;;;2.42;;
78443;SDS011;67739;52.986;8.894;2023-07-29T02:12:39;7.80;;;3.30;;
78443;SDS011;67739;52.986;8.894;2023-07-29T02:15:04;7.10;;;2.35;;
78443;SDS011;67739;52.986;8.894;2023-07-29T02:17:30;9.10;;;3.30;;
78443;SDS011;67739;52.986;8.894;2023-07-29T02:19:58;6.57;;;2.65;;
78443;SDS011;67739;52.986;8.894;2023-07-29T02:22:24;11.52;;;2.83;;
78443;SDS011;67739;52.986;8.894;2023-07-29T02:24:49;8.88;;;3.13;;
78443;SDS011;67739;52.986;8.894;2023-07-29T02:27:14;7.60;;;2.72;;
78443;SDS011;67739;52.986;8.894;2023-07-29T02:29:40;9.32;;;2.95;;
78443;SDS011;67739;52.986;8.894;2023-07-29T02:32:05;7.63;;;3.60;;
78443;SDS011;67739;52.986;8.894;2023-07-29T02:34:30;8.52;;;3.15;;
78443;SDS011;67739;52.986;8.894;2023-07-29T02:36:56;9.25;;;3.05;;
78443;SDS011;67739;52.986;8.894;2023-07-29T02:39:21;9.98;;;2.15;;
78443;SDS011;67739;52.986;8.894;2023-07-29T02:41:48;7.15;;;2.83;;
78443;SDS011;67739;52.986;8.894;2023-07-29T02:44:13;8.23;;;3.13;;
78443;SDS011;67739;52.986;8.894;2023-07-29T02:46:39;9.10;;;3.10;;
78443;SDS011;67739;52.986;8.894;2023-07-29T02:49:04;8.00;;;2.88;;
78443;SDS011;67739;52.986;8.894;2023-07-29T02:51:32;8.38;;;3.70;;
78443;SDS011;67739;52.986;8.894;2023-07-29T02:53:58;10.15;;;3.35;;
78443;SDS011;67739;52.986;8.894;2023-07-29T02:56:23;9.18;;;3.67;;
78443;SDS011;67739;52.986;8.894;2023-07-29T02:58:48;7.65;;;2.55;;
78443;SDS011;67739;52.986;8.894;2023-07-29T03:01:16;9.65;;;3.10;;
78443;SDS011;67739;52.986;8.894;2023-07-29T03:03:41;8.32;;;2.40;;
78443;SDS011;67739;52.986;8.894;2023-07-29T03:06:07;8.38;;;2.78;;
78443;SDS011;67739;52.986;8.894;2023-07-29T03:08:34;8.25;;;2.58;;
78443;SDS011;67739;52.986;8.894;2023-07-29T03:11:07;6.90;;;2.90;;
78443;SDS011;67739;52.986;8.894;2023-07-29T03:13:39;8.93;;;3.20;;
78443;SDS011;67739;52.986;8.894;2023-07-29T03:16:09;8.40;;;3.20;;
78443;SDS011;67739;52.986;8.894;2023-07-29T03:18:36;6.40;;;2.10;;
78443;SDS011;67739;52.986;8.894;2023-07-29T03:21:02;8.13;;;2.85;;
78443;SDS011;67739;52.986;8.894;2023-07-29T03:23:29;7.07;;;2.58;;
78443;SDS011;67739;52.986;8.894;2023-07-29T03:25:55;7.05;;;2.78;;
78443;SDS011;67739;52.986;8.894;2023-07-29T03:28:27;8.23;;;3.10;;
78443;SDS011;67739;52.986;8.894;2023-07-29T03:30:56;11.88;;;2.88;;
78443;SDS011;67739;52.986;8.894;2023-07-29T03:33:22;9.35;;;3.65;;
78443;SDS011;67739;52.986;8.894;2023-07-29T03:35:47;8.07;;;3.13;;
78443;SDS011;67739;52.986;8.894;2023-07-29T03:38:13;7.40;;;2.58;;
78443;SDS011;67739;52.986;8.894;2023-07-29T03:40:39;7.80;;;3.20;;
78443;SDS011;67739;52.986;8.894;2023-07-29T03:43:05;7.28;;;2.40;;
78443;SDS011;67739;52.986;8.894;2023-07-29T03:45:30;7.47;;;2.30;;
78443;SDS011;67739;52.986;8.894;2023-07-29T03:47:56;8.63;;;2.38;;
78443;SDS011;67739;52.986;8.894;2023-07-29T03:50:25;8.50;;;2.20;;
78443;SDS011;67739;52.986;8.894;2023-07-29T03:52:51;6.60;;;2.15;;
78443;SDS011;67739;52.986;8.894;2023-07-29T03:55:16;7.78;;;2.58;;
78443;SDS011;67739;52.986;8.894;2023-07-29T03:57:41;9.80;;;2.50;;
78443;SDS011;67739;52.986;8.894;2023-07-29T04:00:07;9.75;;;2.80;;
78443;SDS011;67739;52.986;8.894;2023-07-29T04:02:34;7.13;;;2.13;;
78443;SDS011;67739;52.986;8.894;2023-07-29T04:05:02;7.20;;;2.33;;
78443;SDS011;67739;52.986;8.894;2023-07-29T04:07:28;7.63;;;2.70;;
78443;SDS011;67739;52.986;8.894;2023-07-29T04:09:53;6.68;;;2.50;;
78443;SDS011;67739;52.986;8.894;2023-07-29T04:12:18;7.90;;;2.92;;
78443;SDS011;67739;52.986;8.894;2023-07-29T04:14:46;7.90;;;2.33;;
78443;SDS011;67739;52.986;8.894;2023-07-29T04:17:11;8.23;;;3.35;;
78443;SDS011;67739;52.986;8.894;2023-07-29T04:19:37;7.38;;;2.55;;
78443;SDS011;67739;52.986;8.894;2023-07-29T04:22:02;6.80;;;2.25;;
78443;SDS011;67739;52.986;8.894;2023-07-29T04:24:27;8.07;;;2.53;;
78443;SDS011;67739;52.986;8.894;2023-07-29T04:26:53;8.57;;;3.35;;
78443;SDS011;67739;52.986;8.894;2023-07-29T04:29:18;6.60;;;2.38;;
78443;SDS011;67739;52.986;8.894;2023-07-29T04:31:43;7.35;;;2.20;;
78443;SDS011;67739;52.986;8.894;2023-07-29T04:34:09;7.88;;;2.65;;
78443;SDS011;67739;52.986;8.894;2023-07-29T04:36:34;7.97;;;2.95;;
78443;SDS011;67739;52.986;8.894;2023-07-29T04:38:59;9.25;;;2.80;;
78443;SDS011;67739;52.986;8.894;2023-07-29T04:41:25;6.55;;;2.50;;
78443;SDS011;67739;52.986;8.894;2023-07-29T04:43:50;7.35;;;2.45;;
78443;SDS011;67739;52.986;8.894;2023-07-29T04:46:16;7.85;;;2.67;;
78443;SDS011;67739;52.986;8.894;2023-07-29T04:48:41;7.97;;;3.05;;
78443;SDS011;67739;52.986;8.894;2023-07-29T04:51:06;9.27;;;3.42;;
78443;SDS011;67739;52.986;8.894;2023-07-29T04:53:32;7.88;;;3.50;;
78443;SDS011;67739;52.986;8.894;2023-07-29T04:55:58;7.78;;;2.45;;
78443;SDS011;67739;52.986;8.894;2023-07-29T04:58:23;7.50;;;2.10;;
78443;SDS011;67739;52.986;8.894;2023-07-29T05:00:48;11.30;;;3.33;;
78443;SDS011;67739;52.986;8.894;2023-07-29T05:03:14;8.65;;;3.00;;
78443;SDS011;67739;52.986;8.894;2023-07-29T05:05:39;7.13;;;3.47;;
78443;SDS011;67739;52.986;8.894;2023-07-29T05:08:05;10.65;;;2.85;;
78443;SDS011;67739;52.986;8.894;2023-07-29T05:10:30;12.27;;;4.00;;
78443;SDS011;67739;52.986;8.894;2023-07-29T05:12:55;7.68;;;3.05;;
78443;SDS011;67739;52.986;8.894;2023-07-29T05:15:20;7.70;;;3.05;;
78443;SDS011;67739;52.986;8.894;2023-07-29T05:17:46;7.45;;;3.53;;
78443;SDS011;67739;52.986;8.894;2023-07-29T05:20:12;9.65;;;3.60;;
78443;SDS011;67739;52.986;8.894;2023-07-29T05:22:38;8.43;;;3.40;;
78443;SDS011;67739;52.986;8.894;2023-07-29T05:25:03;6.53;;;2.22;;
78443;SDS011;67739;52.986;8.894;2023-07-29T05:27:29;7.55;;;2.75;;
78443;SDS011;67739;52.986;8.894;2023-07-29T05:29:54;8.32;;;3.67;;
78443;SDS011;67739;52.986;8.894;2023-07-29T05:32:19;8.73;;;3.28;;
78443;SDS011;67739;52.986;8.894;2023-07-29T05:34:44;8.40;;;3.75;;
78443;SDS011;67739;52.986;8.894;2023-07-29T05:37:10;9.55;;;3.08;;
78443;SDS011;67739;52.986;8.894;2023-07-29T05:39:35;8.32;;;3.15;;
78443;SDS011;67739;52.986;8.894;2023-07-29T05:42:00;7.93;;;2.70;;
78443;SDS011;67739;52.986;8.894;2023-07-29T05:44:28;10.18;;;3.85;;
78443;SDS011;67739;52.986;8.894;2023-07-29T05:46:55;8.85;;;2.70;;
78443;SDS011;67739;52.986;8.894;2023-07-29T05:49:21;10.32;;;3.72;;
78443;SDS011;67739;52.986;8.894;2023-07-29T05:51:46;9.15;;;3.72;;
78443;SDS011;67739;52.986;8.894;2023-07-29T05:54:11;8.20;;;3.47;;
78443;SDS011;67739;52.986;8.894;2023-07-29T05:56:36;8.27;;;3.05;;
78443;SDS011;67739;52.986;8.894;2023-07-29T05:59:02;8.10;;;3.33;;
78443;SDS011;67739;52.986;8.894;2023-07-29T06:01:27;8.68;;;3.72;;
78443;SDS011;67739;52.986;8.894;2023-07-29T06:03:52;7.35;;;3.22;;
78443;SDS011;67739;52.986;8.894;2023-07-29T06:06:18;8.27;;;3.60;;
78443;SDS011;67739;52.986;8.894;2023-07-29T06:08:43;8.23;;;3.53;;
78443;SDS011;67739;52.986;8.894;2023-07-29T06:11:08;9.50;;;3.88;;
78443;SDS011;67739;52.986;8.894;2023-07-29T06:13:34;8.85;;;3.63;;
78443;SDS011;67739;52.986;8.894;2023-07-29T06:15:59;8.77;;;2.58;;
78443;SDS011;67739;52.986;8.894;2023-07-29T06:18:24;7.78;;;3.75;;
78443;SDS011;67739;52.986;8.894;2023-07-29T06:20:50;7.70;;;3.22;;
78443;SDS011;67739;52.986;8.894;2023-07-29T06:23:16;8.10;;;3.03;;
78443;SDS011;67739;52.986;8.894;2023-07-29T06:25:41;9.63;;;3.53;;
78443;SDS011;67739;52.986;8.894;2023-07-29T06:28:06;10.35;;;4.15;;
78443;SDS011;67739;52.986;8.894;2023-07-29T06:30:34;9.65;;;4.10;;
78443;SDS011;67739;52.986;8.894;2023-07-29T06:32:59;10.60;;;4.25;;
78443;SDS011;67739;52.986;8.894;2023-07-29T06:35:24;10.02;;;4.78;;
78443;SDS011;67739;52.986;8.894;2023-07-29T06:37:49;9.77;;;4.78;;
78443;SDS011;67739;52.986;8.894;2023-07-29T06:40:15;8.88;;;4.50;;
78443;SDS011;67739;52.986;8.894;2023-07-29T06:42:40;9.73;;;4.68;;
78443;SDS011;67739;52.986;8.894;2023-07-29T06:45:06;11.05;;;4.50;;
78443;SDS011;67739;52.986;8.894;2023-07-29T06:47:31;8.15;;;3.42;;
78443;SDS011;67739;52.986;8.894;2023-07-29T06:49:57;10.43;;;3.92;;
78443;SDS011;67739;52.986;8.894;2023-07-29T06:52:22;9.75;;;3.95;;
78443;SDS011;67739;52.986;8.894;2023-07-29T06:54:47;10.48;;;4.25;;
78443;SDS011;67739;52.986;8.894;2023-07-29T06:57:13;11.70;;;5.28;;
78443;SDS011;67739;52.986;8.894;2023-07-29T06:59:38;13.23;;;4.30;;
78443;SDS011;67739;52.986;8.894;2023-07-29T07:02:03;9.25;;;3.92;;
78443;SDS011;67739;52.986;8.894;2023-07-29T07:04:29;10.75;;;4.90;;
78443;SDS011;67739;52.986;8.894;2023-07-29T07:06:54;8.93;;;3.95;;
78443;SDS011;67739;52.986;8.894;2023-07-29T07:09:20;9.25;;;4.75;;
78443;SDS011;67739;52.986;8.894;2023-07-29T07:11:45;11.52;;;5.38;;
78443;SDS011;67739;52.986;8.894;2023-07-29T07:14:10;11.55;;;5.05;;
78443;SDS011;67739;52.986;8.894;2023-07-29T07:16:36;10.35;;;5.07;;
78443;SDS011;67739;52.986;8.894;2023-07-29T07:19:02;10.45;;;4.25;;
78443;SDS011;67739;52.986;8.894;2023-07-29T07:21:27;9.02;;;4.10;;
78443;SDS011;67739;52.986;8.894;2023-07-29T07:23:53;9.27;;;4.20;;
78443;SDS011;67739;52.986;8.894;2023-07-29T07:26:18;9.23;;;3.88;;
78443;SDS011;67739;52.986;8.894;2023-07-29T07:28:43;8.52;;;3.85;;
78443;SDS011;67739;52.986;8.894;2023-07-29T07:31:09;9.98;;;3.72;;
78443;SDS011;67739;52.986;8.894;2023-07-29T07:33:34;9.40;;;3.60;;
78443;SDS011;67739;52.986;8.894;2023-07-29T07:36:00;8.77;;;4.13;;
78443;SDS011;67739;52.986;8.894;2023-07-29T07:38:25;9.63;;;4.22;;
78443;SDS011;67739;52.986;8.894;2023-07-29T07:40:54;8.73;;;3.78;;
78443;SDS011;67739;52.986;8.894;2023-07-29T07:43:20;7.93;;;3.60;;
78443;SDS011;67739;52.986;8.894;2023-07-29T07:45:45;8.60;;;3.65;;
78443;SDS011;67739;52.986;8.894;2023-07-29T07:48:11;7.60;;;3.25;;
78443;SDS011;67739;52.986;8.894;2023-07-29T07:50:38;8.48;;;3.50;;
78443;SDS011;67739;52.986;8.894;2023-07-29T07:53:03;8.40;;;3.58;;
78443;SDS011;67739;52.986;8.894;2023-07-29T07:55:29;8.20;;;3.55;;
78443;SDS011;67739;52.986;8.894;2023-07-29T07:57:54;7.82;;;3.20;;
78443;SDS011;67739;52.986;8.894;2023-07-29T08:00:20;6.82;;;2.38;;
78443;SDS011;67739;52.986;8.894;2023-07-29T08:02:46;8.65;;;3.53;;
78443;SDS011;67739;52.986;8.894;2023-07-29T08:05:14;7.80;;;3.00;;
78443;SDS011;67739;52.986;8.894;2023-07-29T08:07:39;8.20;;;3.45;;
78443;SDS011;67739;52.986;8.894;2023-07-29T08:10:05;8.30;;;3.85;;
78443;SDS011;67739;52.986;8.894;2023-07-29T08:12:31;8.00;;;3.50;;
78443;SDS011;67739;52.986;8.894;2023-07-29T08:14:57;7.38;;;3.03;;
78443;SDS011;67739;52.986;8.894;2023-07-29T08:17:22;7.97;;;3.05;;
78443;SDS011;67739;52.986;8.894;2023-07-29T08:19:48;8.35;;;3.42;;
78443;SDS011;67739;52.986;8.894;2023-07-29T08:22:13;9.32;;;3.50;;
78443;SDS011;67739;52.986;8.894;2023-07-29T08:24:38;8.38;;;3.15;;
78443;SDS011;67739;52.986;8.894;2023-07-29T08:27:04;7.35;;;3.13;;
78443;SDS011;67739;52.986;8.894;2023-07-29T08:29:29;8.07;;;3.13;;
78443;SDS011;67739;52.986;8.894;2023-07-29T08:31:55;8.57;;;3.25;;
78443;SDS011;67739;52.986;8.894;2023-07-29T08:34:20;6.45;;;2.63;;
78443;SDS011;67739;52.986;8.894;2023-07-29T08:36:46;8.45;;;3.28;;
78443;SDS011;67739;52.986;8.894;2023-07-29T08:39:11;7.55;;;3.28;;
78443;SDS011;67739;52.986;8.894;2023-07-29T08:44:30;8.13;;;2.83;;
78443;SDS011;67739;52.986;8.894;2023-07-29T08:47:00;6.65;;;2.75;;
78443;SDS011;67739;52.986;8.894;2023-07-29T08:49:26;6.45;;;2.08;;
78443;SDS011;67739;52.986;8.894;2023-07-29T08:51:53;6.90;;;2.47;;
78443;SDS011;67739;52.986;8.894;2023-07-29T08:54:20;6.50;;;3.03;;
78443;SDS011;67739;52.986;8.894;2023-07-29T08:56:46;5.82;;;2.15;;
78443;SDS011;67739;52.986;8.894;2023-07-29T08:59:12;5.75;;;2.10;;
78443;SDS011;67739;52.986;8.894;2023-07-29T09:01:38;8.32;;;2.75;;
78443;SDS011;67739;52.986;8.894;2023-07-29T09:04:04;6.15;;;2.05;;
78443;SDS011;67739;52.986;8.894;2023-07-29T09:06:30;5.28;;;1.77;;
78443;SDS011;67739;52.986;8.894;2023-07-29T09:08:56;5.50;;;1.88;;
78443;SDS011;67739;52.986;8.894;2023-07-29T09:11:23;7.85;;;2.53;;
78443;SDS011;67739;52.986;8.894;2023-07-29T09:13:49;7.88;;;2.75;;
78443;SDS011;67739;52.986;8.894;2023-07-29T09:16:15;6.38;;;2.28;;
78443;SDS011;67739;52.986;8.894;2023-07-29T09:18:40;5.85;;;2.42;;
78443;SDS011;67739;52.986;8.894;2023-07-29T09:21:06;8.07;;;2.80;;
78443;SDS011;67739;52.986;8.894;2023-07-29T09:23:38;7.30;;;2.80;;
78443;SDS011;67739;52.986;8.894;2023-07-29T09:26:07;6.60;;;2.70;;
78443;SDS011;67739;52.986;8.894;2023-07-29T09:28:34;7.05;;;2.80;;
78443;SDS011;67739;52.986;8.894;2023-07-29T09:31:01;8.15;;;3.00;;
78443;SDS011;67739;52.986;8.894;2023-07-29T09:33:28;9.60;;;3.13;;
78443;SDS011;67739;52.986;8.894;2023-07-29T09:35:56;8.13;;;2.25;;
78443;SDS011;67739;52.986;8.894;2023-07-29T09:38:28;6.95;;;2.47;;
78443;SDS011;67739;52.986;8.894;2023-07-29T09:40:56;6.65;;;2.47;;
78443;SDS011;67739;52.986;8.894;2023-07-29T09:43:26;5.72;;;2.45;;
78443;SDS011;67739;52.986;8.894;2023-07-29T09:45:54;7.30;;;2.95;;
78443;SDS011;67739;52.986;8.894;2023-07-29T09:48:22;6.43;;;2.45;;
78443;SDS011;67739;52.986;8.894;2023-07-29T09:50:47;6.80;;;2.38;;
78443;SDS011;67739;52.986;8.894;2023-07-29T09:53:13;6.88;;;2.75;;
78443;SDS011;67739;52.986;8.894;2023-07-29T09:55:39;7.85;;;2.72;;
78443;SDS011;67739;52.986;8.894;2023-07-29T09:58:04;6.03;;;2.40;;
78443;SDS011;67739;52.986;8.894;2023-07-29T10:00:33;7.28;;;3.15;;
78443;SDS011;67739;52.986;8.894;2023-07-29T10:02:59;5.38;;;2.10;;
78443;SDS011;67739;52.986;8.894;2023-07-29T10:05:25;6.55;;;2.33;;
78443;SDS011;67739;52.986;8.894;2023-07-29T10:07:52;5.22;;;2.03;;
78443;SDS011;67739;52.986;8.894;2023-07-29T10:10:20;7.03;;;2.03;;
78443;SDS011;67739;52.986;8.894;2023-07-29T10:12:45;5.03;;;1.65;;
78443;SDS011;67739;52.986;8.894;2023-07-29T10:15:11;4.97;;;1.88;;
78443;SDS011;67739;52.986;8.894;2023-07-29T10:17:37;5.25;;;1.90;;
78443;SDS011;67739;52.986;8.894;2023-07-29T10:20:04;5.57;;;2.03;;
78443;SDS011;67739;52.986;8.894;2023-07-29T10:22:38;5.82;;;1.75;;
78443;SDS011;67739;52.986;8.894;2023-07-29T10:25:09;4.07;;;1.50;;
78443;SDS011;67739;52.986;8.894;2023-07-29T10:27:42;4.57;;;1.70;;
78443;SDS011;67739;52.986;8.894;2023-07-29T10:30:08;5.35;;;1.75;;
78443;SDS011;67739;52.986;8.894;2023-07-29T10:32:35;3.78;;;1.13;;
78443;SDS011;67739;52.986;8.894;2023-07-29T10:35:01;5.18;;;1.63;;
78443;SDS011;67739;52.986;8.894;2023-07-29T10:37:27;3.72;;;1.20;;
78443;SDS011;67739;52.986;8.894;2023-07-29T10:39:53;5.43;;;1.80;;
78443;SDS011;67739;52.986;8.894;2023-07-29T10:42:20;5.05;;;1.38;;
78443;SDS011;67739;52.986;8.894;2023-07-29T10:44:46;4.03;;;1.50;;
78443;SDS011;67739;52.986;8.894;2023-07-29T10:47:14;3.28;;;1.10;;
78443;SDS011;67739;52.986;8.894;2023-07-29T10:49:45;3.88;;;1.35;;
78443;SDS011;67739;52.986;8.894;2023-07-29T10:52:27;3.13;;;1.05;;
78443;SDS011;67739;52.986;8.894;2023-07-29T10:54:58;3.55;;;0.90;;
78443;SDS011;67739;52.986;8.894;2023-07-29T10:57:34;2.63;;;0.90;;
78443;SDS011;67739;52.986;8.894;2023-07-29T11:00:00;3.22;;;1.05;;
78443;SDS011;67739;52.986;8.894;2023-07-29T11:02:32;3.17;;;1.10;;
78443;SDS011;67739;52.986;8.894;2023-07-29T11:05:06;3.25;;;0.90;;
78443;SDS011;67739;52.986;8.894;2023-07-29T11:07:45;4.10;;;0.98;;
78443;SDS011;67739;52.986;8.894;2023-07-29T11:10:12;2.65;;;1.00;;
78443;SDS011;67739;52.986;8.894;2023-07-29T11:12:43;3.08;;;0.93;;
78443;SDS011;67739;52.986;8.894;2023-07-29T11:15:23;2.88;;;0.85;;
78443;SDS011;67739;52.986;8.894;2023-07-29T11:20:19;2.25;;;0.68;;
78443;SDS011;67739;52.986;8.894;2023-07-29T11:22:46;3.22;;;0.90;;
78443;SDS011;67739;52.986;8.894;2023-07-29T11:25:13;2.92;;;0.80;;
78443;SDS011;67739;52.986;8.894;2023-07-29T11:27:40;2.53;;;0.50;;
78443;SDS011;67739;52.986;8.894;2023-07-29T11:30:09;3.90;;;1.00;;
78443;SDS011;67739;52.986;8.894;2023-07-29T11:32:38;2.33;;;0.65;;
78443;SDS011;67739;52.986;8.894;2023-07-29T11:35:05;2.35;;;0.63;;
78443;SDS011;67739;52.986;8.894;2023-07-29T11:37:33;2.92;;;0.80;;
78443;SDS011;67739;52.986;8.894;2023-07-29T11:39:59;3.83;;;1.10;;
78443;SDS011;67739;52.986;8.894;2023-07-29T11:42:24;3.08;;;0.88;;
78443;SDS011;67739;52.986;8.894;2023-07-29T11:44:51;3.13;;;0.65;;
78443;SDS011;67739;52.986;8.894;2023-07-29T11:47:16;3.13;;;0.75;;
78443;SDS011;67739;52.986;8.894;2023-07-29T11:49:42;2.95;;;0.70;;
78443;SDS011;67739;52.986;8.894;2023-07-29T11:52:07;2.95;;;0.60;;
78443;SDS011;67739;52.986;8.894;2023-07-29T11:54:37;2.30;;;0.65;;
78443;SDS011;67739;52.986;8.894;2023-07-29T11:57:04;3.08;;;0.75;;
78443;SDS011;67739;52.986;8.894;2023-07-29T11:59:32;2.58;;;0.60;;
78443;SDS011;67739;52.986;8.894;2023-07-29T12:02:00;3.25;;;0.93;;
78443;SDS011;67739;52.986;8.894;2023-07-29T12:04:26;2.00;;;0.60;;
78443;SDS011;67739;52.986;8.894;2023-07-29T12:06:51;2.55;;;0.75;;
78443;SDS011;67739;52.986;8.894;2023-07-29T12:09:17;1.80;;;0.75;;
78443;SDS011;67739;52.986;8.894;2023-07-29T12:11:42;2.42;;;0.85;;
78443;SDS011;67739;52.986;8.894;2023-07-29T12:14:09;3.20;;;0.88;;
78443;SDS011;67739;52.986;8.894;2023-07-29T12:16:41;2.55;;;0.52;;
78443;SDS011;67739;52.986;8.894;2023-07-29T12:19:07;2.72;;;0.95;;
78443;SDS011;67739;52.986;8.894;2023-07-29T12:21:33;2.28;;;0.60;;
78443;SDS011;67739;52.986;8.894;2023-07-29T12:23:58;2.58;;;0.80;;
78443;SDS011;67739;52.986;8.894;2023-07-29T12:26:27;3.03;;;0.82;;
78443;SDS011;67739;52.986;8.894;2023-07-29T12:28:53;2.45;;;0.68;;
78443;SDS011;67739;52.986;8.894;2023-07-29T12:31:18;2.63;;;0.70;;
78443;SDS011;67739;52.986;8.894;2023-07-29T12:33:44;2.00;;;0.60;;
78443;SDS011;67739;52.986;8.894;2023-07-29T12:36:09;2.70;;;0.93;;
78443;SDS011;67739;52.986;8.894;2023-07-29T12:38:35;4.20;;;0.77;;
78443;SDS011;67739;52.986;8.894;2023-07-29T12:41:01;2.75;;;0.60;;
78443;SDS011;67739;52.986;8.894;2023-07-29T12:43:26;2.03;;;0.60;;
78443;SDS011;67739;52.986;8.894;2023-07-29T12:45:52;3.05;;;0.80;;
78443;SDS011;67739;52.986;8.894;2023-07-29T12:48:17;2.95;;;0.88;;
78443;SDS011;67739;52.986;8.894;2023-07-29T12:50:43;1.95;;;0.50;;
78443;SDS011;67739;52.986;8.894;2023-07-29T12:53:08;2.40;;;0.70;;
78443;SDS011;67739;52.986;8.894;2023-07-29T12:55:37;1.45;;;0.43;;
78443;SDS011;67739;52.986;8.894;2023-07-29T12:58:03;2.15;;;0.40;;
78443;SDS011;67739;52.986;8.894;2023-07-29T13:00:29;2.65;;;0.65;;
78443;SDS011;67739;52.986;8.894;2023-07-29T13:02:54;1.63;;;0.40;;
78443;SDS011;67739;52.986;8.894;2023-07-29T13:05:20;2.10;;;0.40;;
78443;SDS011;67739;52.986;8.894;2023-07-29T13:07:45;3.22;;;0.68;;
78443;SDS011;67739;52.986;8.894;2023-07-29T13:10:11;2.00;;;0.55;;
78443;SDS011;67739;52.986;8.894;2023-07-29T13:12:37;2.05;;;0.52;;
78443;SDS011;67739;52.986;8.894;2023-07-29T13:15:03;2.40;;;0.60;;
78443;SDS011;67739;52.986;8.894;2023-07-29T13:17:29;1.83;;;0.55;;
78443;SDS011;67739;52.986;8.894;2023-07-29T13:19:54;2.58;;;0.60;;
78443;SDS011;67739;52.986;8.894;2023-07-29T13:22:20;2.28;;;0.50;;
78443;SDS011;67739;52.986;8.894;2023-07-29T13:24:46;2.28;;;0.52;;
78443;SDS011;67739;52.986;8.894;2023-07-29T13:27:11;2.05;;;0.40;;
78443;SDS011;67739;52.986;8.894;2023-07-29T13:29:36;1.65;;;0.40;;
78443;SDS011;67739;52.986;8.894;2023-07-29T13:32:02;2.58;;;0.40;;
78443;SDS011;67739;52.986;8.894;2023-07-29T13:34:27;2.45;;;0.50;;
78443;SDS011;67739;52.986;8.894;2023-07-29T13:36:53;2.38;;;0.55;;
78443;SDS011;67739;52.986;8.894;2023-07-29T13:39:18;2.20;;;0.40;;
78443;SDS011;67739;52.986;8.894;2023-07-29T13:41:44;2.33;;;0.50;;
78443;SDS011;67739;52.986;8.894;2023-07-29T13:44:09;1.85;;;0.50;;
78443;SDS011;67739;52.986;8.894;2023-07-29T13:46:34;1.58;;;0.30;;
78443;SDS011;67739;52.986;8.894;2023-07-29T13:48:59;1.83;;;0.40;;
78443;SDS011;67739;52.986;8.894;2023-07-29T13:51:25;1.60;;;0.30;;
78443;SDS011;67739;52.986;8.894;2023-07-29T13:53:50;2.17;;;0.47;;
78443;SDS011;67739;52.986;8.894;2023-07-29T13:56:15;1.95;;;0.45;;
78443;SDS011;67739;52.986;8.894;2023-07-29T13:58:41;2.65;;;0.52;;
78443;SDS011;67739;52.986;8.894;2023-07-29T14:01:06;1.98;;;0.30;;
78443;SDS011;67739;52.986;8.894;2023-07-29T14:03:31;2.22;;;0.40;;
78443;SDS011;67739;52.986;8.894;2023-07-29T14:05:59;2.00;;;0.40;;
78443;SDS011;67739;52.986;8.894;2023-07-29T14:08:25;1.65;;;0.40;;
78443;SDS011;67739;52.986;8.894;2023-07-29T14:10:50;2.38;;;0.50;;
78443;SDS011;67739;52.986;8.894;2023-07-29T14:13:15;2.88;;;0.40;;
78443;SDS011;67739;52.986;8.894;2023-07-29T14:15:40;1.88;;;0.30;;
78443;SDS011;67739;52.986;8.894;2023-07-29T14:18:06;2.15;;;0.43;;
78443;SDS011;67739;52.986;8.894;2023-07-29T14:20:31;2.25;;;0.32;;
78443;SDS011;67739;52.986;8.894;2023-07-29T14:22:57;1.73;;;0.43;;
78443;SDS011;67739;52.986;8.894;2023-07-29T14:25:23;2.38;;;0.45;;
78443;SDS011;67739;52.986;8.894;2023-07-29T14:27:48;2.63;;;0.50;;
78443;SDS011;67739;52.986;8.894;2023-07-29T14:30:14;1.52;;;0.30;;
78443;SDS011;67739;52.986;8.894;2023-07-29T14:32:39;2.03;;;0.50;;
78443;SDS011;67739;52.986;8.894;2023-07-29T14:35:04;2.10;;;0.22;;
78443;SDS011;67739;52.986;8.894;2023-07-29T14:37:30;1.38;;;0.35;;
78443;SDS011;67739;52.986;8.894;2023-07-29T14:39:57;1.98;;;0.35;;
78443;SDS011;67739;52.986;8.894;2023-07-29T14:42:23;1.90;;;0.43;;
78443;SDS011;67739;52.986;8.894;2023-07-29T14:44:48;2.40;;;0.60;;
78443;SDS011;67739;52.986;8.894;2023-07-29T14:47:13;1.85;;;0.40;;
78443;SDS011;67739;52.986;8.894;2023-07-29T14:49:39;2.92;;;0.52;;
78443;SDS011;67739;52.986;8.894;2023-07-29T14:52:05;2.17;;;0.57;;
78443;SDS011;67739;52.986;8.894;2023-07-29T14:54:31;1.20;;;0.40;;